createdAt,value
2023-03-06T01:12:28.262Z,34.03
2023-03-06T01:13:27.742Z,34.04
2023-03-06T01:14:27.778Z,34.01
2023-03-06T01:15:27.798Z,33.99
2023-03-06T01:16:27.842Z,34.04
2023-03-06T01:17:27.865Z,34.04
2023-03-06T01:18:27.897Z,34.01
2023-03-06T01:19:27.920Z,33.98
2023-03-06T01:20:27.953Z,33.99
2023-03-06T01:21:27.984Z,33.98
2023-03-06T01:22:28.007Z,33.98
2023-03-06T01:23:28.048Z,34.03
2023-03-06T01:24:28.066Z,33.99
2023-03-06T01:25:28.126Z,34.00
2023-03-06T01:26:28.192Z,33.98
2023-03-06T01:27:28.233Z,33.95
2023-03-06T01:28:28.296Z,33.95
2023-03-06T01:29:29.253Z,34.00
2023-03-06T01:30:28.403Z,33.94
2023-03-06T01:31:28.591Z,33.95
2023-03-06T01:32:28.629Z,33.97
2023-03-06T01:33:28.637Z,33.92
2023-03-06T01:34:28.710Z,33.93
2023-03-06T01:35:28.870Z,33.92
2023-03-06T01:36:28.873Z,33.95
2023-03-06T01:37:28.961Z,33.90
2023-03-06T01:38:29.030Z,33.91
2023-03-06T01:39:29.113Z,33.93
2023-03-06T01:40:29.194Z,33.93
2023-03-06T01:41:29.284Z,33.90
2023-03-06T01:42:31.355Z,33.85
2023-03-06T01:43:29.636Z,33.89
2023-03-06T01:44:29.736Z,33.92
2023-03-06T01:45:29.892Z,33.88
2023-03-06T01:46:29.942Z,33.89
2023-03-06T01:47:30.087Z,33.84
2023-03-06T01:48:30.176Z,33.87
2023-03-06T01:49:30.205Z,33.84
2023-03-06T01:50:30.291Z,33.84
2023-03-06T01:51:30.387Z,33.87
2023-03-06T01:52:30.479Z,33.83
2023-03-06T01:53:31.259Z,33.84
2023-03-06T01:54:30.628Z,33.84
2023-03-06T01:55:30.722Z,33.85
2023-03-06T01:56:30.784Z,33.79
2023-03-06T01:57:30.879Z,33.83
2023-03-06T01:58:30.965Z,33.82
2023-03-06T01:59:31.064Z,33.80
2023-03-06T02:00:31.177Z,33.81
2023-03-06T02:01:31.313Z,33.83
2023-03-06T02:02:31.382Z,33.78
2023-03-06T02:03:31.441Z,33.79
2023-03-06T02:04:31.522Z,33.80
2023-03-06T02:05:31.612Z,33.76
2023-03-06T02:06:31.687Z,33.82
2023-03-06T02:07:31.768Z,33.79
2023-03-06T02:08:31.845Z,33.82
2023-03-06T02:09:31.919Z,33.80
2023-03-06T02:10:31.997Z,33.75
2023-03-06T02:11:32.107Z,33.79
2023-03-06T02:12:32.226Z,33.82
2023-03-06T02:13:32.240Z,33.71
2023-03-06T02:14:32.310Z,33.71
2023-03-06T02:15:32.381Z,33.73
2023-03-06T02:16:32.512Z,33.74
2023-03-06T02:17:32.530Z,33.78
2023-03-06T02:18:32.588Z,33.72
2023-03-06T02:19:32.658Z,33.76
2023-03-06T02:20:32.735Z,33.76
2023-03-06T02:21:32.796Z,33.76
2023-03-06T02:22:32.938Z,33.76
2023-03-06T02:23:32.936Z,33.69
2023-03-06T02:24:33.100Z,33.75
2023-03-06T02:25:33.093Z,33.72
2023-03-06T02:26:33.162Z,33.72
2023-03-06T02:27:33.228Z,33.74
2023-03-06T02:28:33.304Z,33.74
2023-03-06T02:29:33.368Z,33.73
2023-03-06T02:30:33.479Z,33.75
2023-03-06T02:31:33.500Z,33.74
2023-03-06T02:32:33.587Z,33.70
2023-03-06T02:33:33.633Z,33.75
2023-03-06T02:34:33.695Z,33.75
2023-03-06T02:35:33.911Z,33.72
2023-03-06T02:36:33.855Z,33.76
2023-03-06T02:37:33.970Z,33.73
2023-03-06T02:38:34.029Z,33.70
2023-03-06T02:39:34.130Z,33.73
2023-03-06T02:40:34.199Z,33.75
2023-03-06T02:41:34.283Z,33.72
2023-03-06T02:42:34.371Z,33.73
2023-03-06T02:43:34.449Z,33.73
2023-03-06T02:44:34.557Z,33.76
2023-03-06T02:45:34.608Z,33.75
2023-03-06T02:46:34.755Z,33.72
2023-03-06T02:47:34.786Z,33.72
2023-03-06T02:48:34.855Z,33.71
2023-03-06T02:49:34.931Z,33.75
2023-03-06T02:50:35.013Z,33.73
2023-03-06T02:51:35.103Z,33.73
2023-03-06T02:52:35.196Z,33.72
2023-03-06T02:53:35.276Z,33.76
2023-03-06T02:54:35.349Z,33.71
2023-03-06T02:55:35.414Z,33.71
2023-03-06T02:56:35.463Z,33.73
2023-03-06T02:57:35.542Z,33.73
2023-03-06T02:58:35.626Z,33.78
2023-03-06T03:00:35.782Z,33.76
2023-03-06T03:01:35.852Z,33.74
2023-03-06T03:02:35.918Z,33.78
2023-03-06T03:03:35.997Z,33.74
2023-03-06T03:04:36.193Z,33.72
2023-03-06T03:05:36.121Z,33.72
2023-03-06T03:06:36.182Z,33.73
2023-03-06T03:07:36.251Z,33.72
2023-03-06T03:25:40.347Z,33.69
2023-03-06T03:39:37.709Z,33.67
2023-03-06T03:41:37.724Z,33.67
2023-03-06T03:43:37.718Z,33.71
2023-03-06T03:44:37.731Z,33.66
2023-03-06T03:45:37.756Z,33.61
2023-03-06T03:46:37.805Z,33.61
2023-03-06T03:47:37.790Z,33.66
2023-03-06T03:48:37.817Z,33.65
2023-03-06T03:49:37.827Z,33.62
2023-03-06T03:50:37.846Z,33.66
2023-03-06T03:51:37.866Z,33.64
2023-03-06T03:52:37.888Z,33.66
2023-03-06T03:53:37.908Z,33.60
2023-03-06T03:54:37.938Z,33.57
2023-03-06T03:55:38.022Z,33.63
2023-03-06T03:56:37.975Z,33.63
2023-03-06T03:57:37.990Z,33.61
2023-03-06T03:58:38.020Z,33.65
2023-03-06T03:59:38.041Z,33.65
2023-03-06T04:00:38.063Z,33.62
2023-03-06T04:01:39.706Z,33.61
2023-03-06T04:02:38.099Z,33.66
2023-03-06T04:03:38.119Z,33.63
2023-03-06T04:04:38.161Z,33.67
2023-03-06T04:05:38.148Z,33.66
2023-03-06T04:06:38.180Z,33.67
2023-03-06T04:07:38.214Z,33.62
2023-03-06T04:08:38.222Z,33.67
2023-03-06T04:09:38.251Z,33.68
2023-03-06T04:10:38.325Z,33.63
2023-03-06T04:11:38.282Z,33.68
2023-03-06T04:12:38.315Z,33.63
2023-03-06T04:13:38.334Z,33.65
2023-03-06T04:14:38.422Z,33.66
2023-03-06T04:15:38.485Z,33.67
2023-03-06T04:16:39.325Z,33.66
2023-03-06T04:17:38.639Z,33.70
2023-03-06T04:18:38.712Z,33.60
2023-03-06T04:19:38.784Z,33.62
2023-03-06T04:20:38.858Z,33.59
2023-03-06T04:21:38.913Z,33.63
2023-03-06T04:22:38.963Z,33.63
2023-03-06T04:23:38.996Z,33.63
2023-03-06T04:24:39.073Z,33.68
2023-03-06T04:25:39.133Z,33.62
2023-03-06T04:26:39.252Z,33.68
2023-03-06T04:27:39.252Z,33.63
2023-03-06T04:28:39.299Z,33.60
2023-03-06T04:29:39.332Z,33.67
2023-03-06T04:30:39.466Z,33.63
2023-03-06T04:31:39.436Z,33.65
2023-03-06T04:32:39.534Z,33.62
2023-03-06T04:33:39.509Z,33.63
2023-03-06T04:34:39.576Z,33.62
2023-03-06T04:35:39.657Z,33.65
2023-03-06T04:36:39.646Z,33.63
2023-03-06T04:37:39.677Z,33.62
2023-03-06T04:38:39.720Z,33.62
2023-03-06T04:39:39.833Z,33.62
2023-03-06T04:40:39.779Z,33.64
2023-03-06T04:41:39.800Z,33.62
2023-03-06T04:42:39.839Z,33.60
2023-03-06T04:43:39.865Z,33.59
2023-03-06T04:44:39.887Z,33.63
2023-03-06T04:45:39.937Z,33.61
2023-03-06T04:46:39.949Z,33.59
2023-03-06T04:47:39.982Z,33.62
2023-03-06T04:48:40.022Z,33.60
2023-03-06T04:49:40.090Z,33.60
2023-03-06T04:50:40.114Z,33.61
2023-03-06T04:51:40.150Z,33.62
2023-03-06T04:52:40.277Z,33.58
2023-03-06T04:53:40.221Z,33.60
2023-03-06T04:54:40.833Z,33.55
2023-03-06T04:55:40.270Z,33.55
2023-03-06T04:56:40.291Z,33.53
2023-03-06T04:57:40.364Z,33.55
2023-03-06T04:58:40.343Z,33.55
2023-03-06T04:59:40.376Z,33.61
2023-03-06T05:00:40.900Z,33.52
2023-03-06T05:01:40.397Z,33.53
2023-03-06T05:02:40.417Z,33.62
2023-03-06T05:03:40.532Z,33.55
2023-03-06T05:04:40.464Z,33.53
2023-03-06T05:05:40.474Z,33.57
2023-03-06T05:06:40.502Z,33.55
2023-03-06T05:07:40.525Z,33.59
2023-03-06T05:08:40.537Z,33.55
2023-03-06T05:09:40.563Z,33.60
2023-03-06T05:10:40.581Z,33.55
2023-03-06T05:11:40.618Z,33.58
2023-03-06T05:12:40.630Z,33.52
2023-03-06T05:13:40.648Z,33.55
2023-03-06T05:14:40.671Z,33.56
2023-03-06T05:15:40.692Z,33.57
2023-03-06T05:16:40.762Z,33.54
2023-03-06T05:17:40.742Z,33.58
2023-03-06T05:18:40.757Z,33.51
2023-03-06T05:19:41.359Z,33.52
2023-03-06T05:20:40.806Z,33.57
2023-03-06T05:21:40.832Z,33.58
2023-03-06T05:22:40.956Z,33.53
2023-03-06T05:23:40.909Z,33.55
2023-03-06T05:24:41.844Z,33.57
2023-03-06T05:25:41.839Z,33.55
2023-03-06T05:26:40.987Z,33.57
2023-03-06T05:27:41.009Z,33.54
2023-03-06T05:28:41.034Z,33.57
2023-03-06T05:29:41.058Z,33.56
2023-03-06T05:30:41.076Z,33.54
2023-03-06T05:31:41.155Z,33.52
2023-03-06T05:32:41.199Z,33.54
2023-03-06T05:33:41.167Z,33.54
2023-03-06T05:34:41.209Z,33.52
2023-03-06T05:35:41.266Z,33.54
2023-03-06T05:36:41.269Z,33.57
2023-03-06T05:37:41.314Z,33.57
2023-03-06T05:38:41.325Z,33.53
2023-03-06T05:39:42.352Z,33.53
2023-03-06T05:40:41.375Z,33.54
2023-03-06T05:41:41.410Z,33.52
2023-03-06T05:42:41.503Z,33.56
2023-03-06T05:43:41.471Z,33.49
2023-03-06T05:44:41.551Z,33.50
2023-03-06T05:45:41.610Z,33.46
2023-03-06T05:46:41.559Z,33.45
2023-03-06T05:47:41.586Z,33.52
2023-03-06T05:48:41.618Z,33.51
2023-03-06T05:49:41.639Z,33.46
2023-03-06T05:50:41.716Z,33.48
2023-03-06T05:51:41.691Z,33.48
2023-03-06T05:52:41.729Z,33.45
2023-03-06T05:53:41.745Z,33.44
2023-03-06T05:54:41.777Z,33.44
2023-03-06T05:55:41.804Z,33.41
2023-03-06T05:56:42.903Z,33.45
2023-03-06T05:57:41.915Z,33.45
2023-03-06T05:58:41.863Z,33.45
2023-03-06T05:59:43.169Z,33.40
2023-03-06T06:00:41.904Z,33.44
2023-03-06T06:01:41.932Z,33.46
2023-03-06T06:02:42.018Z,33.43
2023-03-06T06:03:42.025Z,33.41
2023-03-06T06:04:42.057Z,33.41
2023-03-06T06:05:42.045Z,33.45
2023-03-06T06:06:42.130Z,33.40
2023-03-06T06:07:42.093Z,33.40
2023-03-06T06:08:42.106Z,33.44
2023-03-06T06:09:42.134Z,33.37
2023-03-06T06:10:42.155Z,33.41
2023-03-06T06:11:42.183Z,33.41
2023-03-06T06:12:42.216Z,33.43
2023-03-06T06:13:42.258Z,33.40
2023-03-06T06:14:42.275Z,33.38
2023-03-06T06:15:42.342Z,33.40
2023-03-06T06:16:42.326Z,33.40
2023-03-06T06:17:42.361Z,33.40
2023-03-06T06:18:42.404Z,33.42
2023-03-06T06:19:42.426Z,33.40
2023-03-06T06:20:42.463Z,33.44
2023-03-06T06:21:42.512Z,33.37
2023-03-06T06:22:42.524Z,33.37
2023-03-06T06:23:43.375Z,33.40
2023-03-06T06:24:42.667Z,33.41
2023-03-06T06:25:42.620Z,33.41
2023-03-06T06:26:42.658Z,33.41
2023-03-06T06:27:42.693Z,33.38
2023-03-06T06:28:42.746Z,33.42
2023-03-06T06:29:42.781Z,33.41
2023-03-06T06:30:42.812Z,33.35
2023-03-06T06:31:42.871Z,33.38
2023-03-06T06:32:42.891Z,33.35
2023-03-06T06:33:42.946Z,33.32
2023-03-06T06:34:42.968Z,33.24
2023-03-06T06:35:43.054Z,33.27
2023-03-06T06:36:43.039Z,33.24
2023-03-06T06:37:43.072Z,33.27
2023-03-06T06:38:43.096Z,33.24
2023-03-06T06:39:43.131Z,33.23
2023-03-06T06:40:43.175Z,33.23
2023-03-06T06:41:57.592Z,33.19
2023-03-06T06:42:44.219Z,33.25
2023-03-06T06:43:43.231Z,33.25
2023-03-06T06:44:43.248Z,33.23
2023-03-06T06:45:43.268Z,33.23
2023-03-06T06:47:21.282Z,33.27
2023-03-06T06:48:43.390Z,33.24
2023-03-06T06:49:43.364Z,33.24
2023-03-06T06:50:43.391Z,33.25
2023-03-06T06:51:43.424Z,33.25
2023-03-06T06:52:43.457Z,33.29
2023-03-06T06:53:43.469Z,33.25
2023-03-06T06:54:43.494Z,33.25
2023-03-06T06:55:43.511Z,33.29
2023-03-06T06:56:43.553Z,33.25
2023-03-06T06:57:43.552Z,33.28
2023-03-06T06:58:43.590Z,33.23
2023-03-06T06:59:44.376Z,33.25
2023-03-06T07:00:43.631Z,33.23
2023-03-06T07:01:43.719Z,33.24
2023-03-06T07:02:43.700Z,33.19
2023-03-06T09:06:47.931Z,41.71
2023-03-06T09:41:47.570Z,39.54
2023-03-06T13:48:15.874Z,39.70
2023-03-06T13:48:54.166Z,39.64
2023-03-06T13:50:54.053Z,39.69
2023-03-06T13:52:55.152Z,39.67
2023-03-06T13:53:53.396Z,39.72
2023-03-06T13:54:53.417Z,39.74
2023-03-06T13:55:53.468Z,39.76
2023-03-06T13:56:53.489Z,39.72
2023-03-06T13:57:53.516Z,39.76
2023-03-06T13:58:53.528Z,39.73
2023-03-06T14:00:06.650Z,39.77
2023-03-06T14:00:55.547Z,39.76
2023-03-06T14:01:53.582Z,39.74
2023-03-06T14:02:53.633Z,39.65
2023-03-06T14:03:53.544Z,39.63
2023-03-06T14:04:53.558Z,39.69
2023-03-06T14:05:53.546Z,39.69
2023-03-06T14:06:53.620Z,39.69
2023-03-06T14:07:53.544Z,39.67
2023-03-06T14:08:53.617Z,39.71
2023-03-06T14:09:53.545Z,39.74
2023-03-06T14:10:53.552Z,39.75
2023-03-06T14:11:53.566Z,39.78
2023-03-06T14:12:53.551Z,39.81
2023-03-06T14:13:53.570Z,39.86
2023-03-06T14:20:53.602Z,39.70
2023-03-06T14:21:53.624Z,39.69
2023-03-06T14:22:53.648Z,39.66
2023-03-06T14:23:53.680Z,39.71
2023-03-06T14:24:53.621Z,39.76
2023-03-06T14:25:53.628Z,39.74
2023-03-06T14:26:53.654Z,39.76
2023-03-06T14:27:58.183Z,39.80
2023-03-06T14:29:53.679Z,39.81
2023-03-06T14:30:53.716Z,39.82
2023-03-06T14:31:53.705Z,39.79
2023-03-06T14:32:53.708Z,39.80
2023-03-06T14:33:53.754Z,39.78
2023-03-06T14:34:53.734Z,39.80
2023-03-06T14:35:55.617Z,39.80
2023-03-06T14:36:53.743Z,39.79
2023-03-06T14:37:53.807Z,39.81
2023-03-06T14:38:53.757Z,39.80
2023-03-06T14:39:53.758Z,39.86
2023-03-06T14:40:53.761Z,39.84
2023-03-06T14:41:53.774Z,39.82
2023-03-06T14:42:53.778Z,39.81
2023-03-06T14:43:53.794Z,39.78
2023-03-06T14:44:53.817Z,39.85
2023-03-06T14:45:53.871Z,39.79
2023-03-06T14:46:53.877Z,39.84
2023-03-06T14:47:53.836Z,39.75
2023-03-06T14:48:53.868Z,39.77
2023-03-06T14:49:53.907Z,39.74
2023-03-06T14:50:53.947Z,39.73
2023-03-06T14:51:53.962Z,39.75
2023-03-06T14:52:54.003Z,39.78
2023-03-06T14:53:54.045Z,39.74
2023-03-06T17:15:03.341Z,44.09
2023-03-06T17:16:03.434Z,44.07
2023-03-06T17:17:03.495Z,44.01
2023-03-06T17:18:03.581Z,44.02
2023-03-06T17:19:03.662Z,44.01
2023-03-06T17:20:03.748Z,44.06
2023-03-06T17:21:03.809Z,43.99
2023-03-06T17:22:03.879Z,43.96
2023-03-06T17:23:03.964Z,43.95
2023-03-06T17:24:04.046Z,43.97
2023-03-06T17:25:04.092Z,43.94
2023-03-06T17:26:04.154Z,43.90
2023-03-06T17:27:04.236Z,43.89
2023-03-06T17:28:04.314Z,43.90
2023-03-06T17:29:06.872Z,43.85
2023-03-06T17:30:04.646Z,43.91
2023-03-06T17:31:04.786Z,43.90
2023-03-06T17:32:04.845Z,43.80
2023-03-06T17:33:04.899Z,43.82
2023-03-06T17:34:04.957Z,43.77
2023-03-06T17:35:05.002Z,43.85
2023-03-06T17:36:05.088Z,43.77
2023-03-06T17:37:05.153Z,43.77
2023-03-06T17:38:05.158Z,43.71
2023-03-06T17:39:05.208Z,43.74
2023-03-06T17:40:05.246Z,43.79
2023-03-06T17:41:05.303Z,43.77
2023-03-06T17:42:05.379Z,43.73
2023-03-06T17:43:05.438Z,43.75
2023-03-06T17:44:05.486Z,43.74
2023-03-06T17:45:05.529Z,43.74
2023-03-06T17:46:05.722Z,43.63
2023-03-06T17:47:05.649Z,43.65
2023-03-06T17:48:05.709Z,43.67
2023-03-06T17:49:05.770Z,43.60
2023-03-06T17:50:05.811Z,43.62
2023-03-06T17:51:05.855Z,43.60
2023-03-06T17:52:05.927Z,43.63
2023-03-06T17:53:05.990Z,43.57
2023-03-06T17:54:06.057Z,43.50
2023-03-06T17:55:06.093Z,43.55
2023-03-06T17:56:06.110Z,43.57
2023-03-06T17:57:06.124Z,43.51
2023-03-06T17:58:06.174Z,43.49
2023-03-06T17:59:06.223Z,43.51
2023-03-06T18:00:06.324Z,43.49
2023-03-06T18:01:06.256Z,43.46
2023-03-06T18:02:06.415Z,43.46
2023-03-06T18:03:06.308Z,43.45
2023-03-06T18:04:06.317Z,43.41
2023-03-06T18:05:06.398Z,43.44
2023-03-06T18:06:06.382Z,43.44
2023-03-06T18:07:06.430Z,43.43
2023-03-06T18:08:06.514Z,43.38
2023-03-06T18:09:06.466Z,43.37
2023-03-06T18:10:06.552Z,43.37
2023-03-06T18:11:06.562Z,43.37
2023-03-06T18:12:06.534Z,43.37
2023-03-06T18:13:06.548Z,43.37
2023-03-06T18:14:06.574Z,43.31
2023-03-06T18:15:06.599Z,43.29
2023-03-06T18:16:06.738Z,43.25
2023-03-06T18:17:06.667Z,43.28
2023-03-06T18:18:06.691Z,43.25
2023-03-06T18:19:06.711Z,43.25
2023-03-06T18:20:06.734Z,43.26
2023-03-06T18:21:06.753Z,43.21
2023-03-06T18:22:06.792Z,43.19
2023-03-06T18:23:06.839Z,43.17
2023-03-06T18:24:06.836Z,43.20
2023-03-06T18:25:06.851Z,43.16
2023-03-06T18:26:09.455Z,43.17
2023-03-06T18:27:06.938Z,43.16
2023-03-06T18:28:06.924Z,43.15
2023-03-06T18:29:07.158Z,43.14
2023-03-06T18:30:06.951Z,43.10
2023-03-06T21:06:11.277Z,41.26
2023-03-06T21:07:11.313Z,41.23
2023-03-06T21:08:11.360Z,41.20
2023-03-06T21:09:11.409Z,41.28
2023-03-06T21:10:11.442Z,41.22
2023-03-06T21:11:11.554Z,41.24
2023-03-06T21:12:11.538Z,41.18
2023-03-06T21:13:11.572Z,41.19
2023-03-06T21:14:11.615Z,41.15
2023-03-06T21:15:11.671Z,41.14
2023-03-06T21:17:13.770Z,41.14
2023-03-06T21:18:11.800Z,41.14
2023-03-06T21:19:11.885Z,41.12
2023-03-06T21:20:11.885Z,41.06
2023-03-06T21:21:11.940Z,41.12
2023-03-06T21:22:11.985Z,41.07
2023-03-06T21:23:12.031Z,41.06
2023-03-06T21:24:12.068Z,41.03
2023-03-06T21:25:12.117Z,41.03
2023-03-06T21:26:12.182Z,41.03
2023-03-06T21:27:12.213Z,41.01
2023-03-06T21:28:12.264Z,41.04
2023-03-06T21:29:12.313Z,41.01
2023-03-06T21:30:12.353Z,41.02
2023-03-06T21:31:12.785Z,41.01
2023-03-06T21:32:12.478Z,40.96
2023-03-06T21:33:12.482Z,40.95
2023-03-06T21:34:12.559Z,40.93
2023-03-06T21:35:12.586Z,40.93
2023-03-06T21:36:12.641Z,40.93
2023-03-06T21:37:12.683Z,40.90
2023-03-06T21:38:12.733Z,40.91
2023-03-06T21:39:13.235Z,40.88
2023-03-06T21:40:12.827Z,40.89
2023-03-06T21:41:12.875Z,40.92
2023-03-06T21:42:12.923Z,40.90
2023-03-06T21:43:12.979Z,40.89
2023-03-06T21:44:13.107Z,40.85
2023-03-06T21:45:13.066Z,40.79
2023-03-06T21:46:13.198Z,40.83
2023-03-06T21:47:13.191Z,40.82
2023-03-06T21:48:13.222Z,40.84
2023-03-06T21:49:13.255Z,40.81
2023-03-06T21:50:13.330Z,40.79
2023-03-06T21:51:13.374Z,40.82
2023-03-06T21:52:13.399Z,40.82
2023-03-06T21:53:13.448Z,40.81
2023-03-06T21:54:13.575Z,40.80
2023-03-06T21:55:13.540Z,40.77
2023-03-06T21:56:13.585Z,40.75
2023-03-06T21:57:13.634Z,40.75
2023-03-06T21:58:13.677Z,40.73
2023-03-06T21:59:13.754Z,40.68
2023-03-06T22:00:13.780Z,40.73
2023-03-06T22:01:13.886Z,40.75
2023-03-06T22:02:13.874Z,40.68
2023-03-06T22:03:13.933Z,40.75
2023-03-06T22:04:13.989Z,40.71
2023-03-06T22:05:14.040Z,40.71
2023-03-06T22:06:14.079Z,40.70
2023-03-06T22:07:14.134Z,40.71
2023-03-06T22:08:14.181Z,40.67
2023-03-06T22:09:14.232Z,40.71
2023-03-06T22:10:14.351Z,40.63
2023-03-06T22:11:14.336Z,40.59
2023-03-06T22:12:14.417Z,40.59
2023-03-06T22:13:14.445Z,40.63
2023-03-06T22:14:14.482Z,40.58
2023-03-06T22:15:15.244Z,40.61
2023-03-06T22:16:15.327Z,40.57
2023-03-06T22:17:14.649Z,40.54
2023-03-06T22:18:14.710Z,40.57
2023-03-06T22:19:14.734Z,40.58
2023-03-06T22:20:14.780Z,40.59
2023-03-06T22:21:14.846Z,40.55
2023-03-06T22:22:14.886Z,40.54
2023-03-06T22:23:14.956Z,40.56
2023-03-06T22:24:15.040Z,40.54
2023-03-06T22:25:15.048Z,40.51
2023-03-06T22:26:15.095Z,40.54
2023-03-06T22:27:15.147Z,40.53
2023-03-06T22:28:15.186Z,40.51
2023-03-06T22:29:15.232Z,40.51
2023-03-06T22:30:15.286Z,40.48
2023-03-06T22:31:15.344Z,40.47
2023-03-06T22:32:15.550Z,40.44
2023-03-06T22:33:15.433Z,40.50
2023-03-06T22:34:15.494Z,40.45
2023-03-06T22:35:15.533Z,40.46
2023-03-06T22:36:15.613Z,40.47
2023-03-06T22:37:15.652Z,40.44
2023-03-06T22:38:15.710Z,40.40
2023-03-06T22:39:15.753Z,40.37
2023-03-06T22:40:15.829Z,40.36
2023-03-06T22:41:15.868Z,40.41
2023-03-06T22:42:15.924Z,40.37
2023-03-06T22:43:15.971Z,40.37
2023-03-06T22:44:16.030Z,40.35
2023-03-06T22:45:16.091Z,40.32
2023-03-06T22:46:16.199Z,40.33
2023-03-06T22:47:16.749Z,40.35
2023-03-06T22:48:16.249Z,40.32
2023-03-06T22:49:16.305Z,40.32
2023-03-06T22:50:16.355Z,40.30
2023-03-06T22:51:16.408Z,40.29
2023-03-06T22:52:16.479Z,40.32
2023-03-06T22:53:16.528Z,40.28
2023-03-06T22:54:16.587Z,40.23
2023-03-06T22:55:16.750Z,40.29
2023-03-06T22:56:16.705Z,40.28
2023-03-06T22:57:16.765Z,40.25
2023-03-06T22:58:16.832Z,40.25
2023-03-06T22:59:16.912Z,40.24
2023-03-06T23:00:16.954Z,40.24
2023-03-06T23:01:17.048Z,40.22
2023-03-06T23:02:17.060Z,40.21
2023-03-06T23:03:17.124Z,40.20
2023-03-06T23:04:17.198Z,40.20
2023-03-06T23:05:17.238Z,40.19
2023-03-06T23:06:17.295Z,40.15
2023-03-06T23:07:17.355Z,40.15
2023-03-06T23:08:17.423Z,40.15
2023-03-06T23:09:17.472Z,40.16
2023-03-06T23:10:17.526Z,40.15
2023-03-06T23:11:17.587Z,40.14
2023-03-06T23:12:17.634Z,40.12
2023-03-06T23:13:17.695Z,40.12
2023-03-06T23:14:17.849Z,40.14
2023-03-06T23:15:17.813Z,40.12
